Terminal Aerodrome Forecast
Issued by NWS

Home | Current Version | Previous Version | Graphics & Text | Print | Product List | Glossary On
Versions: 1 2 3 4 5 6 7 8 9 10 11 12 13 14 15 16 17
275
FTUS43 KABR 291450 AAA
TAFPIR
TAF AMD
KPIR 291450Z 2915/3012 10007KT P6SM BKN015 OVC090
     FM291600 08011KT P6SM OVC050
     FM300800 04012KT P6SM VCSH OVC025=

USA.gov is the U.S. government's official web portal to all federal, state and local government web resources and services.